Terminal Aerodrome Forecast
Issued by NWS Charleston, WV

Current Version | Previous Version | Graphics & Text | Print | Product List | Glossary On
Versions: 1 2 3 4 5 6 7 8 9 10 11 12 13 14 15 16 17 18 19 20 21 22 23 24 25 26
000
FTUS41 KRLX 051743
TAFHTS
TAF
KHTS 051743Z 0518/0618 VRB03KT P6SM BKN025
     FM052300 VRB03KT P6SM BKN200
     FM060800 08004KT P6SM OVC025
     FM060900 08004KT P6SM -RA OVC020
     FM061000 08005KT 4SM -RA OVC010
     FM061400 11006KT 2SM -RA OVC003=

USA.gov is the U.S. government's official web portal to all federal, state and local government web resources and services.